Time;durP1;ratioP1;P1;durP2;ratioP2;P2;SDS_P1;SDS_P2;PMS_P1;PMS_P2;Temp;Humidity;BMP_temperature;BMP_pressure;BME280_temperature;BME280_humidity;BME280_pressure;Samples;Min_cycle;Max_cycle;Signal;HPM_P1;HPM_P2
2023/12/03 00:01:09;;;;;;;8.85;7.03;;;;;;;;;;6093804;29;20078;-93
2023/12/03 00:04:11;;;;;;;7.95;7.45;;;;;;;;;;6106824;29;20055;-92
2023/12/03 00:07:13;;;;;;;8.02;7.38;;;;;;;;;;6093495;29;20052;-94
2023/12/03 00:10:14;;;;;;;6.07;5.85;;;;;;;;;;6093599;29;20517;-94
2023/12/03 00:13:16;;;;;;;8.57;8.07;;;;;;;;;;6108775;29;20047;-93
2023/12/03 00:16:18;;;;;;;11.52;8.98;;;;;;;;;;6089269;29;20495;-94
2023/12/03 00:19:19;;;;;;;7.47;6.93;;;;;;;;;;6093059;29;20048;-94
2023/12/03 00:22:21;;;;;;;8.60;6.82;;;;;;;;;;6093850;29;20087;-93
2023/12/03 00:25:23;;;;;;;6.93;6.57;;;;;;;;;;6093596;29;20044;-94
2023/12/03 00:28:24;;;;;;;6.82;6.28;;;;;;;;;;6092828;29;20135;-94
2023/12/03 00:31:26;;;;;;;7.25;6.65;;;;;;;;;;6093311;29;20051;-93
2023/12/03 00:34:28;;;;;;;8.32;7.22;;;;;;;;;;6084544;29;20098;-93
2023/12/03 00:37:29;;;;;;;8.38;7.75;;;;;;;;;;6084165;29;20059;-94
2023/12/03 00:40:31;;;;;;;7.18;6.88;;;;;;;;;;6076510;29;20488;-95
2023/12/03 00:43:33;;;;;;;7.03;6.47;;;;;;;;;;6092644;29;20516;-94
2023/12/03 00:46:34;;;;;;;7.10;6.70;;;;;;;;;;6086230;29;20051;-93
2023/12/03 00:49:36;;;;;;;9.40;8.73;;;;;;;;;;6092046;29;20043;-94
2023/12/03 00:52:42;;;;;;;8.68;8.02;;;;;;;;;;6084537;29;20049;-94
2023/12/03 00:55:43;;;;;;;8.27;7.82;;;;;;;;;;6071208;29;20048;-94
2023/12/03 00:58:45;;;;;;;8.40;7.75;;;;;;;;;;6085238;29;20823;-94
2023/12/03 01:01:47;;;;;;;8.32;7.57;;;;;;;;;;6089369;29;20515;-94
2023/12/03 01:04:48;;;;;;;9.55;8.90;;;;;;;;;;6092155;29;20044;-94
2023/12/03 01:07:50;;;;;;;7.78;7.18;;;;;;;;;;6093817;29;20044;-94
2023/12/03 01:10:52;;;;;;;6.30;5.95;;;;;;;;;;6093107;29;20051;-94
2023/12/03 01:13:53;;;;;;;18.63;8.60;;;;;;;;;;6093283;29;20462;-94
2023/12/03 01:16:56;;;;;;;8.85;7.57;;;;;;;;;;6086670;29;20044;-94
2023/12/03 01:19:57;;;;;;;9.40;8.77;;;;;;;;;;6091013;29;20055;-94
2023/12/03 01:23:00;;;;;;;10.30;9.32;;;;;;;;;;6091516;29;20430;-95
2023/12/03 01:26:02;;;;;;;15.88;9.15;;;;;;;;;;6089433;29;20048;-94
2023/12/03 01:29:04;;;;;;;13.35;9.57;;;;;;;;;;6092267;29;20168;-94
2023/12/03 01:32:06;;;;;;;11.27;10.02;;;;;;;;;;6092781;29;20126;-94
2023/12/03 01:35:08;;;;;;;11.80;10.68;;;;;;;;;;6089380;29;20136;-95
2023/12/03 01:38:10;;;;;;;9.73;9.05;;;;;;;;;;6089906;29;20048;-95
2023/12/03 01:41:11;;;;;;;11.02;10.18;;;;;;;;;;6106676;29;20036;-94
2023/12/03 01:44:14;;;;;;;9.77;9.10;;;;;;;;;;6088671;29;20578;-94
2023/12/03 01:47:16;;;;;;;8.77;8.15;;;;;;;;;;6092242;29;20092;-94
2023/12/03 01:50:19;;;;;;;12.32;10.88;;;;;;;;;;6089438;29;20091;-95
2023/12/03 01:53:21;;;;;;;9.02;8.40;;;;;;;;;;6085558;29;20044;-95
2023/12/03 01:56:23;;;;;;;9.90;9.30;;;;;;;;;;6092007;29;20055;-94
2023/12/03 01:59:26;;;;;;;10.60;9.73;;;;;;;;;;6083571;29;20044;-95
2023/12/03 02:02:27;;;;;;;9.82;8.82;;;;;;;;;;6086006;29;20127;-94
2023/12/03 02:05:29;;;;;;;13.73;10.15;;;;;;;;;;6087533;29;20123;-95
2023/12/03 02:08:31;;;;;;;9.40;8.70;;;;;;;;;;6098616;29;20047;-94
2023/12/03 02:11:33;;;;;;;11.10;10.10;;;;;;;;;;6097773;29;20411;-95
2023/12/03 02:14:35;;;;;;;8.38;7.95;;;;;;;;;;6099122;29;20087;-93
2023/12/03 02:17:37;;;;;;;10.60;9.70;;;;;;;;;;6097873;29;20575;-95
2023/12/03 02:20:38;;;;;;;11.60;10.63;;;;;;;;;;6098187;29;20083;-94
2023/12/03 02:23:40;;;;;;;11.23;10.50;;;;;;;;;;6100152;29;20452;-94
2023/12/03 02:26:41;;;;;;;9.05;8.32;;;;;;;;;;6098953;29;20521;-93
2023/12/03 02:29:46;;;;;;;12.90;11.02;;;;;;;;;;6100800;29;20052;-93
2023/12/03 02:32:48;;;;;;;9.60;8.30;;;;;;;;;;6094458;29;20529;-92
2023/12/03 02:35:50;;;;;;;8.20;7.60;;;;;;;;;;6098915;29;20075;-92
2023/12/03 02:38:51;;;;;;;8.60;8.07;;;;;;;;;;6088087;29;20131;-93
2023/12/03 02:41:53;;;;;;;8.43;7.93;;;;;;;;;;6092870;29;20327;-92
2023/12/03 02:44:55;;;;;;;10.00;9.13;;;;;;;;;;6094407;29;20055;-95
2023/12/03 02:47:57;;;;;;;10.63;9.48;;;;;;;;;;6109328;29;20406;-95
2023/12/03 02:50:59;;;;;;;8.48;7.70;;;;;;;;;;6115075;29;20044;-95
2023/12/03 02:54:01;;;;;;;11.15;9.20;;;;;;;;;;6085355;29;20055;-95
2023/12/03 02:57:05;;;;;;;9.05;8.45;;;;;;;;;;6094386;29;20084;-95
2023/12/03 03:00:07;;;;;;;12.43;11.50;;;;;;;;;;6093372;29;20052;-95
2023/12/03 03:03:09;;;;;;;12.35;11.38;;;;;;;;;;6098053;29;20399;-95
2023/12/03 03:06:11;;;;;;;12.95;11.18;;;;;;;;;;6097890;29;20127;-94
2023/12/03 03:09:13;;;;;;;11.15;10.15;;;;;;;;;;6095008;29;20040;-95
2023/12/03 03:12:15;;;;;;;10.23;9.52;;;;;;;;;;6093896;29;20463;-95
2023/12/03 03:15:17;;;;;;;14.75;9.88;;;;;;;;;;6097500;29;20130;-95
2023/12/03 03:18:19;;;;;;;10.15;9.45;;;;;;;;;;6093354;29;20518;-95
2023/12/03 03:21:23;;;;;;;9.77;8.80;;;;;;;;;;6086271;29;20480;-96
2023/12/03 03:24:25;;;;;;;8.68;8.07;;;;;;;;;;6093106;29;20079;-95
2023/12/03 03:27:27;;;;;;;11.20;10.15;;;;;;;;;;6090270;29;20048;-96
2023/12/03 03:30:29;;;;;;;13.02;10.13;;;;;;;;;;6096537;29;20074;-95
2023/12/03 03:33:31;;;;;;;10.55;9.73;;;;;;;;;;6092899;29;20051;-96
2023/12/03 03:36:33;;;;;;;13.75;12.38;;;;;;;;;;6094307;29;20518;-96
2023/12/03 03:39:36;;;;;;;8.43;7.85;;;;;;;;;;6089883;29;20056;-96
2023/12/03 03:42:38;;;;;;;15.27;7.68;;;;;;;;;;6091333;29;20314;-96
2023/12/03 03:45:40;;;;;;;9.73;8.85;;;;;;;;;;6084887;29;20376;-96
2023/12/03 03:48:42;;;;;;;10.40;8.88;;;;;;;;;;6094057;29;20407;-96
2023/12/03 03:51:45;;;;;;;8.68;7.88;;;;;;;;;;6088490;29;20046;-96
2023/12/03 03:54:47;;;;;;;11.23;10.32;;;;;;;;;;6093138;29;20506;-96
2023/12/03 03:57:49;;;;;;;8.93;8.40;;;;;;;;;;6095206;29;20102;-96
2023/12/03 04:00:51;;;;;;;7.57;7.22;;;;;;;;;;6093500;29;20056;-96
2023/12/03 04:03:52;;;;;;;10.75;10.05;;;;;;;;;;6086973;29;20048;-96
2023/12/03 04:06:55;;;;;;;10.48;9.45;;;;;;;;;;6094255;29;20055;-96
2023/12/03 04:09:56;;;;;;;10.45;9.50;;;;;;;;;;6094215;29;20052;-95
2023/12/03 04:12:58;;;;;;;8.73;8.13;;;;;;;;;;6093288;29;20051;-96
2023/12/03 04:16:00;;;;;;;10.02;9.32;;;;;;;;;;6089729;29;20041;-96
2023/12/03 04:19:02;;;;;;;10.73;10.02;;;;;;;;;;6092680;29;20075;-96
2023/12/03 04:22:05;;;;;;;9.20;8.50;;;;;;;;;;6093754;29;20083;-96
2023/12/03 04:25:07;;;;;;;12.98;11.60;;;;;;;;;;6093203;29;20044;-96
2023/12/03 04:28:09;;;;;;;11.75;10.80;;;;;;;;;;6092585;29;20075;-96
2023/12/03 04:31:19;;;;;;;13.55;11.15;;;;;;;;;;6092407;29;20230;-96
2023/12/03 04:34:21;;;;;;;15.70;8.27;;;;;;;;;;6093906;29;20126;-96
2023/12/03 04:37:23;;;;;;;13.55;11.10;;;;;;;;;;6071384;29;20055;-96
2023/12/03 04:40:25;;;;;;;9.65;8.88;;;;;;;;;;6091946;29;20052;-96
2023/12/03 04:43:27;;;;;;;10.95;10.02;;;;;;;;;;6078578;29;20596;-96
2023/12/03 04:46:29;;;;;;;9.27;8.50;;;;;;;;;;6095525;29;20052;-96
2023/12/03 04:49:31;;;;;;;9.45;8.73;;;;;;;;;;6096702;29;20048;-96
2023/12/03 04:52:33;;;;;;;17.10;10.68;;;;;;;;;;6093200;29;20104;-96
2023/12/03 04:55:35;;;;;;;9.07;8.38;;;;;;;;;;6096042;29;20075;-96
2023/12/03 04:58:37;;;;;;;10.10;9.30;;;;;;;;;;6095972;29;20142;-96
2023/12/03 05:01:39;;;;;;;14.13;11.05;;;;;;;;;;6086875;29;20423;-96
2023/12/03 05:04:42;;;;;;;12.25;11.23;;;;;;;;;;6098218;29;20147;-96
2023/12/03 05:07:44;;;;;;;11.80;10.27;;;;;;;;;;6096992;29;20211;-96
2023/12/03 05:10:46;;;;;;;11.25;9.82;;;;;;;;;;6080263;29;20083;-96
2023/12/03 05:13:48;;;;;;;9.40;8.77;;;;;;;;;;6094806;29;20044;-96
2023/12/03 05:16:49;;;;;;;18.27;10.60;;;;;;;;;;6100717;29;20111;-96
2023/12/03 05:19:51;;;;;;;12.70;11.60;;;;;;;;;;6096256;29;20130;-96
2023/12/03 05:22:54;;;;;;;13.90;9.57;;;;;;;;;;6083071;29;20211;-96
2023/12/03 05:25:57;;;;;;;12.15;8.48;;;;;;;;;;6098252;29;20498;-96
2023/12/03 05:28:59;;;;;;;11.15;10.20;;;;;;;;;;6099406;29;20048;-96
2023/12/03 05:32:01;;;;;;;11.90;11.02;;;;;;;;;;6081487;29;20076;-96
2023/12/03 05:35:04;;;;;;;11.75;10.65;;;;;;;;;;6096776;29;20076;-96
2023/12/03 05:38:06;;;;;;;10.25;9.27;;;;;;;;;;6085048;29;20052;-96
2023/12/03 05:41:11;;;;;;;10.57;9.95;;;;;;;;;;6106922;29;20044;-96
2023/12/03 05:44:14;;;;;;;12.68;10.20;;;;;;;;;;6110141;29;20048;-96
2023/12/03 05:47:16;;;;;;;8.77;8.05;;;;;;;;;;6113223;29;20043;-96
2023/12/03 05:50:24;;;;;;;13.15;10.52;;;;;;;;;;6114024;29;20051;-96
2023/12/03 05:53:37;;;;;;;10.95;8.90;;;;;;;;;;6114545;29;20052;-96
2023/12/03 05:56:50;;;;;;;11.40;9.98;;;;;;;;;;6121100;29;20048;-96
2023/12/03 05:59:54;;;;;;;8.82;8.27;;;;;;;;;;6091032;29;20672;-96
2023/12/03 06:02:59;;;;;;;10.65;9.75;;;;;;;;;;6100023;29;20481;-96
2023/12/03 06:06:02;;;;;;;8.80;8.10;;;;;;;;;;6102469;29;20048;-96
2023/12/03 06:09:06;;;;;;;8.88;8.38;;;;;;;;;;6096990;29;20052;-96
2023/12/03 06:12:08;;;;;;;11.05;10.05;;;;;;;;;;6098393;29;20052;-96
2023/12/03 06:15:11;;;;;;;10.15;9.40;;;;;;;;;;6094282;29;20051;-96
2023/12/03 06:18:15;;;;;;;8.95;8.43;;;;;;;;;;6101613;29;20059;-96
2023/12/03 06:21:17;;;;;;;13.60;10.82;;;;;;;;;;6097603;29;20052;-96
2023/12/03 06:24:20;;;;;;;13.05;12.18;;;;;;;;;;6090081;29;20110;-96
2023/12/03 06:27:22;;;;;;;9.38;8.60;;;;;;;;;;6082307;29;20055;-96
2023/12/03 06:30:25;;;;;;;8.88;8.18;;;;;;;;;;6093271;29;20052;-96
2023/12/03 06:33:30;;;;;;;9.50;8.75;;;;;;;;;;6089693;29;20216;-96
2023/12/03 06:36:32;;;;;;;11.63;10.48;;;;;;;;;;6093009;29;20214;-96
2023/12/03 06:39:34;;;;;;;10.30;9.70;;;;;;;;;;6096440;29;20537;-96
2023/12/03 06:42:36;;;;;;;9.80;8.90;;;;;;;;;;6094062;29;20078;-95
2023/12/03 06:45:38;;;;;;;10.48;9.75;;;;;;;;;;6077524;29;20055;-96
2023/12/03 06:48:42;;;;;;;11.90;10.90;;;;;;;;;;6088320;29;20048;-96
2023/12/03 06:51:46;;;;;;;14.38;10.45;;;;;;;;;;6093880;29;20044;-96
2023/12/03 06:54:49;;;;;;;11.27;10.40;;;;;;;;;;6086579;29;20044;-95
2023/12/03 06:57:51;;;;;;;14.32;12.15;;;;;;;;;;6081445;29;20492;-95
2023/12/03 07:00:53;;;;;;;11.77;10.23;;;;;;;;;;6096828;29;20048;-96
2023/12/03 07:03:56;;;;;;;11.82;9.77;;;;;;;;;;6097975;29;20226;-96
2023/12/03 07:06:59;;;;;;;10.73;9.38;;;;;;;;;;6100996;29;20044;-96
2023/12/03 07:10:06;;;;;;;10.88;9.98;;;;;;;;;;6098686;29;20571;-96
2023/12/03 07:13:08;;;;;;;10.98;10.15;;;;;;;;;;6100689;29;20040;-96
2023/12/03 07:16:14;;;;;;;9.48;8.75;;;;;;;;;;6099646;29;20047;-96
2023/12/03 07:19:16;;;;;;;14.25;11.68;;;;;;;;;;6096269;29;20138;-96
2023/12/03 07:22:18;;;;;;;26.33;12.27;;;;;;;;;;6094085;29;20052;-95
2023/12/03 07:25:20;;;;;;;12.32;11.07;;;;;;;;;;6086254;29;20423;-96
2023/12/03 07:28:21;;;;;;;11.90;10.85;;;;;;;;;;6082729;29;20044;-95
2023/12/03 07:31:23;;;;;;;11.07;9.68;;;;;;;;;;6088262;29;20100;-94
2023/12/03 07:34:26;;;;;;;13.60;10.40;;;;;;;;;;6093224;29;20048;-96
2023/12/03 07:37:28;;;;;;;9.38;8.75;;;;;;;;;;6099747;29;20511;-95
2023/12/03 07:40:29;;;;;;;10.52;9.60;;;;;;;;;;6094388;29;20155;-94
2023/12/03 07:43:31;;;;;;;10.63;9.85;;;;;;;;;;6108932;29;20040;-94
2023/12/03 07:46:33;;;;;;;11.07;10.30;;;;;;;;;;6094038;29;20052;-94
2023/12/03 07:49:35;;;;;;;10.90;10.10;;;;;;;;;;6094777;29;20048;-95
2023/12/03 07:52:37;;;;;;;12.00;10.82;;;;;;;;;;6099674;29;20044;-93
2023/12/03 07:55:39;;;;;;;11.18;10.23;;;;;;;;;;6084427;29;20056;-93
2023/12/03 07:58:41;;;;;;;12.23;11.05;;;;;;;;;;6085314;29;20048;-94
2023/12/03 08:01:42;;;;;;;15.40;14.05;;;;;;;;;;6094656;29;20495;-94
2023/12/03 08:04:44;;;;;;;11.45;10.48;;;;;;;;;;6093147;29;20509;-94
2023/12/03 08:07:49;;;;;;;14.57;11.25;;;;;;;;;;6093143;29;20056;-94
2023/12/03 08:10:51;;;;;;;10.55;9.10;;;;;;;;;;6094167;29;20411;-94
2023/12/03 08:13:54;;;;;;;12.05;9.65;;;;;;;;;;6071315;29;20172;-94
2023/12/03 08:16:56;;;;;;;11.75;10.38;;;;;;;;;;6079221;29;20048;-94
2023/12/03 08:19:57;;;;;;;19.85;11.88;;;;;;;;;;6095031;29;20052;-95
2023/12/03 08:22:59;;;;;;;9.60;8.90;;;;;;;;;;6109080;29;20483;-94
2023/12/03 08:26:02;;;;;;;11.60;10.32;;;;;;;;;;6095316;29;20051;-94
2023/12/03 08:29:05;;;;;;;11.65;10.75;;;;;;;;;;6109750;29;20581;-94
2023/12/03 08:32:08;;;;;;;16.92;12.38;;;;;;;;;;6094077;29;20051;-92
2023/12/03 08:35:09;;;;;;;11.48;10.57;;;;;;;;;;6092275;29;20467;-94
2023/12/03 08:38:11;;;;;;;11.38;10.38;;;;;;;;;;6094360;29;20055;-94
2023/12/03 08:41:13;;;;;;;34.05;12.48;;;;;;;;;;6094337;29;20407;-95
2023/12/03 08:44:15;;;;;;;9.80;8.98;;;;;;;;;;6093333;29;20051;-93
2023/12/03 08:47:17;;;;;;;18.77;12.98;;;;;;;;;;6091493;29;20089;-93
2023/12/03 08:50:19;;;;;;;10.70;9.82;;;;;;;;;;6093349;29;20076;-93
2023/12/03 08:53:21;;;;;;;11.88;10.88;;;;;;;;;;6094132;29;20124;-93
2023/12/03 08:56:24;;;;;;;12.50;11.50;;;;;;;;;;6092819;29;20040;-93
2023/12/03 08:59:25;;;;;;;10.60;9.80;;;;;;;;;;6091278;29;20447;-94
2023/12/03 09:02:28;;;;;;;32.50;12.15;;;;;;;;;;6090590;29;20479;-93
2023/12/03 09:05:30;;;;;;;13.73;12.38;;;;;;;;;;6076847;29;20096;-94
2023/12/03 09:08:32;;;;;;;14.55;10.77;;;;;;;;;;6083923;29;20161;-94
2023/12/03 09:11:35;;;;;;;11.60;10.38;;;;;;;;;;6092789;29;20704;-92
2023/12/03 09:14:37;;;;;;;12.07;11.05;;;;;;;;;;6092454;29;20055;-93
2023/12/03 09:17:39;;;;;;;13.43;12.07;;;;;;;;;;6091371;29;20123;-93
2023/12/03 09:20:41;;;;;;;14.30;10.02;;;;;;;;;;6089151;29;20056;-93
2023/12/03 09:23:44;;;;;;;8.27;7.78;;;;;;;;;;6092273;29;20048;-93
2023/12/03 09:26:47;;;;;;;8.68;8.25;;;;;;;;;;6081672;29;20067;-93
2023/12/03 09:29:48;;;;;;;8.63;8.00;;;;;;;;;;6093042;29;20051;-93
2023/12/03 09:32:50;;;;;;;15.13;11.52;;;;;;;;;;6093770;29;20050;-91
2023/12/03 09:35:53;;;;;;;8.90;8.05;;;;;;;;;;6104230;29;20044;-93
2023/12/03 09:38:54;;;;;;;11.13;10.25;;;;;;;;;;6086705;29;20044;-92
2023/12/03 09:42:00;;;;;;;10.02;9.18;;;;;;;;;;6086362;29;20556;-92
2023/12/03 09:45:04;;;;;;;11.68;10.70;;;;;;;;;;6086559;29;20467;-91
2023/12/03 09:48:07;;;;;;;16.55;9.45;;;;;;;;;;6089444;29;20044;-92
2023/12/03 09:51:12;;;;;;;9.75;8.88;;;;;;;;;;6093308;29;20422;-92
2023/12/03 09:54:14;;;;;;;11.15;10.20;;;;;;;;;;6083052;29;20164;-91
2023/12/03 09:57:16;;;;;;;10.65;9.77;;;;;;;;;;6087390;29;20537;-90
2023/12/03 10:00:19;;;;;;;13.90;12.75;;;;;;;;;;6092005;29;20498;-90
2023/12/03 10:03:20;;;;;;;12.32;10.38;;;;;;;;;;6097225;29;20060;-90
2023/12/03 10:06:22;;;;;;;17.55;9.93;;;;;;;;;;6076016;29;20499;-90
2023/12/03 10:09:25;;;;;;;12.32;11.43;;;;;;;;;;6092858;29;20051;-90
2023/12/03 10:12:34;;;;;;;13.18;9.05;;;;;;;;;;6089914;29;20072;-90
2023/12/03 10:15:36;;;;;;;10.43;9.55;;;;;;;;;;6088943;29;20147;-90
2023/12/03 10:18:38;;;;;;;9.60;8.98;;;;;;;;;;6089245;29;20063;-91
2023/12/03 10:21:47;;;;;;;9.65;8.80;;;;;;;;;;6088386;29;20085;-91
2023/12/03 10:24:49;;;;;;;9.93;9.32;;;;;;;;;;6093074;29;20462;-91
2023/12/03 10:27:52;;;;;;;9.45;8.95;;;;;;;;;;6094967;29;20051;-91
2023/12/03 10:30:55;;;;;;;10.57;9.90;;;;;;;;;;6097670;29;20055;-90
2023/12/03 10:33:57;;;;;;;10.48;9.60;;;;;;;;;;6086271;29;20197;-90
2023/12/03 10:37:01;;;;;;;10.80;9.70;;;;;;;;;;6091388;29;21244;-91
2023/12/03 10:40:03;;;;;;;11.63;10.73;;;;;;;;;;6097947;29;20491;-91
2023/12/03 10:43:05;;;;;;;9.40;8.80;;;;;;;;;;6083140;29;20051;-91
2023/12/03 10:46:11;;;;;;;11.68;10.60;;;;;;;;;;6093640;29;20288;-92
2023/12/03 10:49:14;;;;;;;9.48;8.75;;;;;;;;;;6095623;29;20044;-92
2023/12/03 10:52:17;;;;;;;11.98;10.35;;;;;;;;;;6088741;29;20517;-91
2023/12/03 10:55:19;;;;;;;8.48;7.97;;;;;;;;;;6092408;29;20493;-92
2023/12/03 10:58:25;;;;;;;11.38;9.90;;;;;;;;;;6091668;29;20134;-91
2023/12/03 11:05:22;;;;;;;13.65;12.25;;;;;;;;;;6324821;23;20728;-89
2023/12/03 11:08:43;;;;;;;9.77;9.20;;;;;;;;;;6132703;28;20051;-90
2023/12/03 11:11:47;;;;;;;8.27;7.78;;;;;;;;;;6133481;28;20524;-89
2023/12/03 11:14:49;;;;;;;8.10;7.63;;;;;;;;;;6134642;28;20039;-89
2023/12/03 11:17:51;;;;;;;9.65;8.90;;;;;;;;;;6130993;28;20043;-89
2023/12/03 11:20:55;;;;;;;9.45;8.77;;;;;;;;;;6136214;28;20054;-89
2023/12/03 11:24:18;;;;;;;10.02;9.32;;;;;;;;;;6137823;28;20051;-89
2023/12/03 11:27:27;;;;;;;8.00;7.50;;;;;;;;;;6140080;28;20047;-89
2023/12/03 11:30:40;;;;;;;9.73;9.13;;;;;;;;;;6137347;28;20055;-88
2023/12/03 11:33:49;;;;;;;9.43;8.63;;;;;;;;;;6149816;28;20171;-88
2023/12/03 11:36:51;;;;;;;8.15;7.57;;;;;;;;;;6139526;28;20047;-89
2023/12/03 11:40:12;;;;;;;7.10;6.72;;;;;;;;;;6141138;28;20054;-89
2023/12/03 11:43:24;;;;;;;9.55;8.63;;;;;;;;;;6152134;28;20055;-89
2023/12/03 11:46:27;;;;;;;7.20;6.82;;;;;;;;;;6133829;28;20498;-89
2023/12/03 11:49:30;;;;;;;10.27;9.38;;;;;;;;;;6086750;28;20054;-89
2023/12/03 11:52:32;;;;;;;14.85;13.48;;;;;;;;;;6104539;29;20043;-89
2023/12/03 11:55:36;;;;;;;7.95;7.20;;;;;;;;;;6111942;28;20851;-89
2023/12/03 11:58:38;;;;;;;9.00;8.40;;;;;;;;;;6136414;28;20044;-89
2023/12/03 12:01:40;;;;;;;8.93;8.25;;;;;;;;;;6118726;28;20112;-89
2023/12/03 12:04:42;;;;;;;7.70;7.20;;;;;;;;;;6135722;29;20182;-89
2023/12/03 12:08:03;;;;;;;11.25;10.40;;;;;;;;;;6138503;28;20051;-89
2023/12/03 12:11:05;;;;;;;9.18;8.48;;;;;;;;;;6137042;28;20039;-89
2023/12/03 12:14:07;;;;;;;10.30;9.65;;;;;;;;;;6135122;28;20043;-89
2023/12/03 12:17:09;;;;;;;7.45;7.10;;;;;;;;;;6134437;29;20433;-89
2023/12/03 12:20:12;;;;;;;8.73;8.27;;;;;;;;;;6127761;28;20051;-89
2023/12/03 12:23:22;;;;;;;7.22;6.88;;;;;;;;;;6134580;28;20042;-89
2023/12/03 12:26:26;;;;;;;8.65;7.10;;;;;;;;;;6138436;28;20404;-89
2023/12/03 12:29:27;;;;;;;7.38;6.97;;;;;;;;;;6140358;28;20035;-89
2023/12/03 12:32:29;;;;;;;7.90;7.32;;;;;;;;;;6129775;28;20051;-89
2023/12/03 12:35:34;;;;;;;10.90;7.97;;;;;;;;;;6126171;28;20509;-90
2023/12/03 12:38:42;;;;;;;8.10;7.57;;;;;;;;;;6133107;28;20047;-88
2023/12/03 12:41:44;;;;;;;6.75;6.43;;;;;;;;;;6130871;28;20117;-88
2023/12/03 12:44:48;;;;;;;5.63;5.43;;;;;;;;;;6130450;28;20062;-87
2023/12/03 12:47:50;;;;;;;8.68;8.18;;;;;;;;;;6134473;29;20915;-89
2023/12/03 12:50:52;;;;;;;6.65;6.35;;;;;;;;;;6129283;28;20525;-90
2023/12/03 12:53:55;;;;;;;8.05;7.65;;;;;;;;;;6134565;28;20215;-89
2023/12/03 12:56:57;;;;;;;7.28;6.88;;;;;;;;;;6134164;28;20479;-91
2023/12/03 13:00:03;;;;;;;6.35;5.95;;;;;;;;;;6131684;28;20051;-91
2023/12/03 13:03:05;;;;;;;7.18;6.65;;;;;;;;;;6139599;28;20048;-90
2023/12/03 13:06:07;;;;;;;5.78;5.50;;;;;;;;;;6134113;28;20050;-90
2023/12/03 13:09:09;;;;;;;6.53;6.07;;;;;;;;;;6139805;28;20043;-90
2023/12/03 13:12:11;;;;;;;7.07;6.72;;;;;;;;;;6134513;28;20856;-90
2023/12/03 13:15:13;;;;;;;6.57;6.22;;;;;;;;;;6139031;28;20054;-90
2023/12/03 13:18:14;;;;;;;7.68;7.28;;;;;;;;;;6136575;28;20511;-90
2023/12/03 13:21:25;;;;;;;5.75;5.45;;;;;;;;;;6137201;28;20886;-90
2023/12/03 13:24:27;;;;;;;9.02;6.35;;;;;;;;;;6137688;28;20039;-90
2023/12/03 13:27:29;;;;;;;6.60;6.30;;;;;;;;;;6136939;28;20055;-89
2023/12/03 13:30:31;;;;;;;7.32;6.82;;;;;;;;;;6137068;28;20253;-90
2023/12/03 13:33:34;;;;;;;7.90;7.45;;;;;;;;;;6137934;28;20147;-90
2023/12/03 13:36:37;;;;;;;8.23;7.63;;;;;;;;;;6134453;29;20035;-90
2023/12/03 13:39:40;;;;;;;9.00;8.38;;;;;;;;;;6135603;28;20077;-90
2023/12/03 13:42:49;;;;;;;7.85;7.15;;;;;;;;;;6135721;28;20039;-90
2023/12/03 13:45:51;;;;;;;8.20;7.75;;;;;;;;;;6134540;28;20054;-90
2023/12/03 13:48:53;;;;;;;6.88;6.47;;;;;;;;;;6153308;28;20046;-90
2023/12/03 13:51:54;;;;;;;6.78;6.15;;;;;;;;;;6134613;28;20051;-90
2023/12/03 13:54:58;;;;;;;8.27;7.53;;;;;;;;;;6136415;28;20494;-90
2023/12/03 13:58:01;;;;;;;8.13;7.00;;;;;;;;;;6136463;28;20078;-90
2023/12/03 14:01:03;;;;;;;8.05;7.38;;;;;;;;;;6130735;28;20043;-90
2023/12/03 14:04:04;;;;;;;9.05;8.43;;;;;;;;;;6132942;28;20344;-90
2023/12/03 14:07:06;;;;;;;6.57;6.28;;;;;;;;;;6136348;28;20298;-90
2023/12/03 14:10:09;;;;;;;7.07;6.72;;;;;;;;;;6137743;28;20054;-90
2023/12/03 14:13:11;;;;;;;11.68;8.15;;;;;;;;;;6135112;28;20118;-90
2023/12/03 14:16:18;;;;;;;8.77;8.05;;;;;;;;;;6128786;28;20052;-90
2023/12/03 14:19:20;;;;;;;8.50;7.90;;;;;;;;;;6127114;28;20417;-90
2023/12/03 14:22:22;;;;;;;9.18;8.30;;;;;;;;;;6138848;28;20046;-89
2023/12/03 14:25:26;;;;;;;14.95;9.07;;;;;;;;;;6136483;28;20044;-89
2023/12/03 14:28:28;;;;;;;10.13;9.45;;;;;;;;;;6136318;28;20062;-90
2023/12/03 14:31:32;;;;;;;9.45;8.85;;;;;;;;;;6138239;28;20194;-90
2023/12/03 14:34:35;;;;;;;6.40;6.13;;;;;;;;;;6137170;28;20601;-90
2023/12/03 14:37:39;;;;;;;9.65;8.90;;;;;;;;;;6135319;28;20047;-90
2023/12/03 14:40:42;;;;;;;9.27;8.57;;;;;;;;;;6127917;28;20511;-90
2023/12/03 14:43:45;;;;;;;12.95;9.63;;;;;;;;;;6119609;28;20417;-89
2023/12/03 14:46:48;;;;;;;9.65;8.70;;;;;;;;;;6126932;28;20507;-90
2023/12/03 14:49:50;;;;;;;10.82;9.88;;;;;;;;;;6127538;28;20131;-89
2023/12/03 14:52:54;;;;;;;8.90;8.32;;;;;;;;;;6126565;28;20590;-89
2023/12/03 14:55:55;;;;;;;12.30;11.13;;;;;;;;;;6131783;28;20047;-90
2023/12/03 14:58:57;;;;;;;9.02;8.15;;;;;;;;;;6134780;28;20036;-90
2023/12/03 15:02:00;;;;;;;10.32;8.45;;;;;;;;;;6121662;28;20059;-89
2023/12/03 15:05:04;;;;;;;8.18;7.53;;;;;;;;;;6128595;28;20771;-89
2023/12/03 15:08:06;;;;;;;9.77;9.13;;;;;;;;;;6135804;28;20046;-89
2023/12/03 15:11:08;;;;;;;9.63;8.77;;;;;;;;;;6139623;28;20825;-90
2023/12/03 15:14:10;;;;;;;9.82;8.95;;;;;;;;;;6137693;28;20039;-90
2023/12/03 15:17:12;;;;;;;10.48;8.70;;;;;;;;;;6146223;28;20043;-89
2023/12/03 15:20:15;;;;;;;9.82;9.00;;;;;;;;;;6142097;28;20075;-90
2023/12/03 15:23:16;;;;;;;9.70;8.75;;;;;;;;;;6135718;28;20047;-90
2023/12/03 15:26:19;;;;;;;9.55;8.90;;;;;;;;;;6141816;28;20043;-90
2023/12/03 15:29:21;;;;;;;12.50;10.52;;;;;;;;;;6158405;28;20150;-90
2023/12/03 15:32:22;;;;;;;8.35;7.75;;;;;;;;;;6139540;28;20048;-90
2023/12/03 15:35:25;;;;;;;10.25;9.38;;;;;;;;;;6143223;28;20050;-90
2023/12/03 15:38:28;;;;;;;7.55;6.90;;;;;;;;;;6157658;28;20054;-90
2023/12/03 15:41:31;;;;;;;8.13;7.53;;;;;;;;;;6140664;28;20090;-90
2023/12/03 15:44:33;;;;;;;8.63;8.00;;;;;;;;;;6145962;28;20058;-90
2023/12/03 15:47:35;;;;;;;11.07;9.20;;;;;;;;;;6140191;28;20089;-91
2023/12/03 15:50:46;;;;;;;10.05;9.27;;;;;;;;;;6136303;28;20043;-91
2023/12/03 15:53:48;;;;;;;10.20;9.35;;;;;;;;;;6137974;28;20405;-91
2023/12/03 15:56:52;;;;;;;9.15;8.43;;;;;;;;;;6139029;28;20477;-91
2023/12/03 15:59:54;;;;;;;9.93;9.02;;;;;;;;;;6137691;28;20142;-91
2023/12/03 16:02:59;;;;;;;10.32;9.63;;;;;;;;;;6137776;28;20094;-90
2023/12/03 16:06:03;;;;;;;9.80;9.07;;;;;;;;;;6141544;28;20122;-90
2023/12/03 16:09:05;;;;;;;11.38;10.30;;;;;;;;;;6132471;28;20051;-90
2023/12/03 16:12:06;;;;;;;9.13;8.55;;;;;;;;;;6138985;28;20043;-91
2023/12/03 16:15:09;;;;;;;10.75;10.02;;;;;;;;;;6140244;28;20595;-91
2023/12/03 16:18:10;;;;;;;9.40;8.77;;;;;;;;;;6142040;28;20043;-91
2023/12/03 16:21:12;;;;;;;8.60;8.02;;;;;;;;;;6136617;28;20098;-91
2023/12/03 16:24:14;;;;;;;8.23;7.82;;;;;;;;;;6135782;28;20091;-91
2023/12/03 16:27:16;;;;;;;8.93;8.27;;;;;;;;;;6140898;29;20043;-91
2023/12/03 16:30:18;;;;;;;8.18;7.68;;;;;;;;;;6141501;28;20051;-90
2023/12/03 16:33:19;;;;;;;13.00;9.50;;;;;;;;;;6142199;28;20113;-91
2023/12/03 16:36:21;;;;;;;9.70;8.75;;;;;;;;;;6140734;28;20047;-91
2023/12/03 16:39:23;;;;;;;8.73;7.47;;;;;;;;;;6133517;28;20050;-90
2023/12/03 16:42:25;;;;;;;11.02;9.32;;;;;;;;;;6137943;28;20051;-90
2023/12/03 16:45:29;;;;;;;8.15;7.45;;;;;;;;;;6136066;28;20056;-90
2023/12/03 16:48:32;;;;;;;9.00;8.38;;;;;;;;;;6133008;28;20508;-90
2023/12/03 16:51:34;;;;;;;7.97;7.57;;;;;;;;;;6139262;29;20141;-90
2023/12/03 16:54:39;;;;;;;9.77;8.88;;;;;;;;;;6140490;28;20052;-90
2023/12/03 16:57:41;;;;;;;11.63;10.07;;;;;;;;;;6136732;29;20504;-90
2023/12/03 17:00:43;;;;;;;8.30;7.70;;;;;;;;;;6140644;28;20119;-90
2023/12/03 17:03:45;;;;;;;8.95;8.35;;;;;;;;;;6127403;28;20051;-90
2023/12/03 17:06:46;;;;;;;8.95;8.02;;;;;;;;;;6149081;28;20807;-90
2023/12/03 17:09:48;;;;;;;8.98;8.18;;;;;;;;;;6139173;28;20469;-90
2023/12/03 17:12:51;;;;;;;9.63;9.00;;;;;;;;;;6144854;28;20416;-90
2023/12/03 17:15:59;;;;;;;10.32;9.55;;;;;;;;;;6136453;28;20560;-90
2023/12/03 17:19:02;;;;;;;8.98;8.25;;;;;;;;;;6135674;28;20463;-90
2023/12/03 17:22:04;;;;;;;9.75;8.93;;;;;;;;;;6134441;29;20427;-90
2023/12/03 17:25:06;;;;;;;13.20;9.50;;;;;;;;;;6139835;28;20047;-90
2023/12/03 17:28:08;;;;;;;8.60;7.90;;;;;;;;;;6134207;28;20090;-90
2023/12/03 17:31:09;;;;;;;6.50;6.20;;;;;;;;;;6132278;28;20524;-91
2023/12/03 17:34:15;;;;;;;10.60;9.68;;;;;;;;;;6133213;28;20039;-92
2023/12/03 17:37:16;;;;;;;8.90;8.20;;;;;;;;;;6135380;28;20055;-92
2023/12/03 17:40:19;;;;;;;9.48;8.82;;;;;;;;;;6140408;28;20488;-92
2023/12/03 17:43:22;;;;;;;7.85;7.25;;;;;;;;;;6134480;28;20352;-92
2023/12/03 17:46:25;;;;;;;10.98;10.18;;;;;;;;;;6137424;28;20509;-92
2023/12/03 17:49:28;;;;;;;9.23;8.52;;;;;;;;;;6145426;28;20565;-92
2023/12/03 17:52:31;;;;;;;7.07;6.47;;;;;;;;;;6138782;28;20126;-93
2023/12/03 17:55:33;;;;;;;11.60;8.38;;;;;;;;;;6136883;28;20589;-93
2023/12/03 17:58:35;;;;;;;9.00;8.48;;;;;;;;;;6132886;29;20078;-93
2023/12/03 18:01:37;;;;;;;13.95;7.75;;;;;;;;;;6133619;28;20061;-93
2023/12/03 18:04:39;;;;;;;8.02;7.50;;;;;;;;;;6136371;28;20126;-93
2023/12/03 18:07:41;;;;;;;8.00;7.60;;;;;;;;;;6137902;28;20047;-93